Time;durP1;ratioP1;P1;durP2;ratioP2;P2;SDS_P1;SDS_P2;PMS_P1;PMS_P2;Temp;Humidity;BMP_temperature;BMP_pressure;BME280_temperature;BME280_humidity;BME280_pressure;Samples;Min_cycle;Max_cycle;Signal;HPM_P1;HPM_P2
2023/12/14 00:02:52;;;;;;;1.75;1.15;;;;;;;22.27;83.09;100765.88;10438373;28;20551;-82
2023/12/14 00:07:54;;;;;;;1.77;1.23;;;;;;;22.88;83.96;100780.09;10448913;28;20079;-83
2023/12/14 00:12:56;;;;;;;1.52;0.63;;;;;;;23.13;81.16;100788.16;10456051;28;20055;-82
2023/12/14 00:17:58;;;;;;;2.45;1.35;;;;;;;23.95;79.98;100780.50;10460621;28;20049;-83
2023/12/14 00:23:00;;;;;;;1.65;0.50;;;;;;;22.72;82.43;100791.03;10459045;28;20053;-82
2023/12/14 00:28:01;;;;;;;0.63;0.63;;;;;;;22.53;81.95;100801.13;10460838;28;20094;-83
2023/12/14 00:33:03;;;;;;;0.30;0.30;;;;;;;25.38;76.69;100809.84;10461201;28;20037;-83
2023/12/14 00:38:05;;;;;;;2.50;0.95;;;;;;;22.67;80.19;100824.44;10460164;28;20041;-83
2023/12/14 00:43:07;;;;;;;0.05;0.05;;;;;;;23.07;80.41;100831.22;10450853;28;20128;-83
2023/12/14 00:48:09;;;;;;;0.75;0.65;;;;;;;24.20;78.56;100832.34;10443562;28;20045;-84
2023/12/14 00:53:10;;;;;;;3.38;0.73;;;;;;;22.46;81.56;100839.78;10460137;28;20067;-83
2023/12/14 00:58:13;;;;;;;0.77;0.68;;;;;;;23.71;80.04;100856.63;10448372;28;20502;-82
2023/12/14 01:03:15;;;;;;;1.98;0.90;;;;;;;21.77;83.22;100876.34;10466313;28;20051;-83
2023/12/14 01:08:17;;;;;;;1.00;0.88;;;;;;;23.63;80.41;100882.28;10456443;28;20052;-83
2023/12/14 01:13:18;;;;;;;0.10;0.05;;;;;;;23.42;78.30;100895.09;10457251;28;20048;-83
2023/12/14 01:18:20;;;;;;;2.35;1.33;;;;;;;22.73;80.69;100895.16;10456697;28;20040;-83
2023/12/14 01:23:22;;;;;;;0.63;0.60;;;;;;;24.37;78.32;100906.38;10459070;28;20443;-83
2023/12/14 01:28:24;;;;;;;1.58;1.00;;;;;;;22.53;80.35;100918.41;10457561;28;20069;-82
2023/12/14 01:33:26;;;;;;;0.45;0.38;;;;;;;23.07;80.91;100919.72;10439818;28;20095;-83
2023/12/14 01:38:27;;;;;;;0.80;0.28;;;;;;;22.85;80.08;100928.13;10475093;28;20464;-82
2023/12/14 01:50:17;;;;;;;1.88;0.90;;;;;;;22.69;79.52;100958.28;10456500;28;20128;-82
2023/12/14 01:55:20;;;;;;;4.10;0.68;;;;;;;23.19;80.72;100963.22;10458259;28;20053;-83
2023/12/14 02:00:29;;;;;;;0.43;0.43;;;;;;;22.33;80.44;100974.81;10462198;28;20048;-83
2023/12/14 02:05:31;;;;;;;2.35;0.70;;;;;;;22.99;80.94;100985.56;10471494;28;20053;-83
2023/12/14 02:10:32;;;;;;;0.68;0.68;;;;;;;21.48;81.27;100994.84;10443305;28;20140;-82
2023/12/14 02:15:34;;;;;;;0.57;0.57;;;;;;;22.49;80.60;100999.88;10456507;28;20074;-82
2023/12/14 02:20:36;;;;;;;0.68;0.68;;;;;;;21.28;81.31;101001.31;10456091;28;20075;-82
2023/12/14 02:25:38;;;;;;;0.73;0.73;;;;;;;22.12;79.27;101008.50;10454661;28;20071;-82
2023/12/14 03:45:19;;;;;;;0.30;0.30;;;;;;;23.98;72.28;101125.09;10460768;28;20400;-83
2023/12/14 03:50:21;;;;;;;0.28;0.20;;;;;;;24.50;72.26;101128.03;10440575;28;20045;-82
2023/12/14 03:55:23;;;;;;;1.50;0.70;;;;;;;23.63;72.97;101150.53;10445081;28;20040;-82
2023/12/14 04:00:25;;;;;;;1.92;0.95;;;;;;;23.73;72.35;101152.00;10472811;28;20473;-82
2023/12/14 04:05:27;;;;;;;0.10;0.10;;;;;;;23.49;72.31;101153.50;10461962;28;20041;-82
2023/12/14 04:10:29;;;;;;;0.75;0.75;;;;;;;23.37;73.19;101154.66;10461783;28;20059;-83
2023/12/14 04:15:30;;;;;;;0.75;0.68;;;;;;;23.26;72.94;101151.41;10461582;28;20091;-83
2023/12/14 04:20:32;;;;;;;1.88;1.67;;;;;;;24.66;69.55;101168.03;10461718;28;20083;-83
2023/12/14 04:25:34;;;;;;;0.30;0.30;;;;;;;23.32;71.81;101177.56;10449891;28;20041;-83
2023/12/14 04:30:36;;;;;;;2.03;0.95;;;;;;;23.85;71.08;101186.81;10462795;28;20048;-83
2023/12/14 04:35:37;;;;;;;0.13;0.13;;;;;;;23.50;71.46;101196.41;10460697;28;20053;-83
2023/12/14 04:40:39;;;;;;;0.35;0.35;;;;;;;23.86;72.64;101186.78;10475040;28;20044;-82
2023/12/14 04:45:44;;;;;;;1.08;0.57;;;;;;;24.03;70.72;101196.03;10445673;28;20098;-82
2023/12/14 04:50:46;;;;;;;0.28;0.25;;;;;;;23.35;72.32;101197.66;10458827;28;20396;-83
2023/12/14 04:55:47;;;;;;;1.00;0.30;;;;;;;23.23;72.47;101204.88;10446879;28;20049;-83
2023/12/14 05:00:49;;;;;;;1.65;0.60;;;;;;;21.99;72.09;101211.63;10460057;28;20538;-82
2023/12/14 05:05:51;;;;;;;2.58;1.42;;;;;;;23.57;71.42;101213.78;10459947;28;20430;-82
2023/12/14 05:10:53;;;;;;;3.33;1.58;;;;;;;23.62;70.13;101232.97;10443103;28;20045;-82
2023/12/14 05:15:54;;;;;;;0.30;0.28;;;;;;;22.33;72.28;101248.66;10459462;28;20102;-83
2023/12/14 05:20:56;;;;;;;2.10;0.95;;;;;;;23.88;70.91;101265.66;10459806;28;20045;-82
2023/12/14 05:25:58;;;;;;;1.00;0.85;;;;;;;23.63;72.18;101274.16;10442969;28;20070;-82
2023/12/14 05:31:00;;;;;;;0.85;0.77;;;;;;;22.72;72.72;101282.13;10460179;28;20392;-82
2023/12/14 05:36:02;;;;;;;0.57;0.55;;;;;;;23.11;72.10;101290.13;10446536;28;20045;-82
2023/12/14 05:41:04;;;;;;;0.38;0.28;;;;;;;23.92;71.12;101305.03;10442376;28;20504;-82
2023/12/14 05:46:06;;;;;;;0.50;0.50;;;;;;;23.17;70.38;101318.03;10458378;28;20053;-82
2023/12/14 05:51:08;;;;;;;0.15;0.15;;;;;;;24.24;70.20;101323.59;10416986;28;20580;-82
2023/12/14 05:56:10;;;;;;;0.43;0.32;;;;;;;24.62;70.13;101331.44;10441493;28;20045;-82
2023/12/14 06:01:11;;;;;;;2.05;0.82;;;;;;;25.01;69.04;101345.34;10448739;28;20079;-82
2023/12/14 06:06:14;;;;;;;0.65;0.32;;;;;;;25.91;67.16;101353.31;10450498;28;20098;-82
2023/12/14 06:11:16;;;;;;;0.17;0.10;;;;;;;25.40;67.05;101356.59;10457545;28;20500;-82
2023/12/14 06:16:18;;;;;;;1.08;0.52;;;;;;;24.67;68.63;101371.72;10457281;28;20078;-82
2023/12/14 06:21:20;;;;;;;2.15;1.05;;;;;;;25.20;68.64;101379.13;10456638;28;20076;-83
2023/12/14 06:26:21;;;;;;;0.63;0.63;;;;;;;23.85;71.52;101386.78;10440443;28;20045;-82
2023/12/14 06:31:23;;;;;;;0.22;0.22;;;;;;;24.66;70.93;101399.84;10473579;28;20136;-82
2023/12/14 06:36:29;;;;;;;0.43;0.43;;;;;;;23.05;70.73;101423.38;10456520;28;20040;-83
2023/12/14 06:41:31;;;;;;;1.35;0.98;;;;;;;24.15;70.35;101426.50;10457451;28;20496;-82
2023/12/14 06:46:33;;;;;;;0.35;0.35;;;;;;;25.86;68.33;101434.41;10455839;28;20077;-82
2023/12/14 06:51:34;;;;;;;0.52;0.43;;;;;;;22.18;73.76;101449.22;10459717;28;20143;-82
2023/12/14 06:56:37;;;;;;;1.40;0.10;;;;;;;24.24;70.99;101447.31;10455727;28;20129;-82
2023/12/14 07:01:39;;;;;;;2.35;1.55;;;;;;;23.34;73.98;101457.06;10453850;28;20138;-82
2023/12/14 07:06:41;;;;;;;3.47;2.17;;;;;;;23.35;72.33;101456.13;10454389;28;20529;-82
2023/12/14 07:11:42;;;;;;;2.88;0.88;;;;;;;23.44;72.37;101450.72;10454674;28;20045;-82
2023/12/14 07:16:44;;;;;;;0.75;0.57;;;;;;;23.35;74.75;101465.81;10449704;28;20132;-82
2023/12/14 07:21:46;;;;;;;1.10;1.00;;;;;;;22.72;74.63;101473.84;10429195;28;20037;-82
2023/12/14 07:26:48;;;;;;;1.65;0.70;;;;;;;24.80;70.78;101472.41;10476243;28;20072;-82
2023/12/14 07:31:49;;;;;;;0.57;0.47;;;;;;;22.85;72.89;101497.28;10417734;28;20393;-82
2023/12/14 07:36:52;;;;;;;1.05;0.40;;;;;;;24.78;72.89;101495.28;10448325;28;20037;-82
2023/12/14 07:41:54;;;;;;;1.20;0.65;;;;;;;24.40;73.28;101511.06;10445954;28;20116;-81
2023/12/14 07:46:56;;;;;;;0.68;0.57;;;;;;;22.99;74.14;101524.19;10445900;28;20504;-82
2023/12/14 07:51:58;;;;;;;1.60;1.08;;;;;;;23.95;72.10;101530.41;10444706;28;20083;-82
2023/12/14 07:56:59;;;;;;;0.85;0.73;;;;;;;24.67;70.81;101546.47;10431857;28;20097;-82
2023/12/14 08:02:01;;;;;;;0.30;0.30;;;;;;;25.24;71.37;101554.78;10459411;28;20045;-81
2023/12/14 08:07:03;;;;;;;0.43;0.43;;;;;;;22.98;71.78;101572.38;10439512;28;20449;-82
2023/12/14 08:12:05;;;;;;;0.38;0.38;;;;;;;23.96;72.73;101579.53;10441539;28;20120;-82
2023/12/14 08:17:07;;;;;;;0.38;0.30;;;;;;;24.90;70.52;101589.00;10442505;28;20111;-82
2023/12/14 08:22:12;;;;;;;2.03;1.15;;;;;;;23.87;70.95;101608.59;10437997;28;20558;-82
2023/12/14 08:27:13;;;;;;;0.20;0.20;;;;;;;23.56;71.08;101623.19;10447960;28;20049;-82
2023/12/14 08:32:15;;;;;;;0.38;0.32;;;;;;;24.28;70.61;101632.44;10444294;28;20091;-82
2023/12/14 08:37:17;;;;;;;0.47;0.40;;;;;;;26.50;66.32;101636.78;10459987;28;20052;-82
2023/12/14 08:42:19;;;;;;;0.80;0.65;;;;;;;25.94;66.86;101648.88;10454836;28;20133;-82
2023/12/14 08:47:20;;;;;;;0.30;0.30;;;;;;;23.38;68.42;101660.31;10455677;28;20412;-82
2023/12/14 08:52:22;;;;;;;0.45;0.28;;;;;;;24.52;69.33;101662.69;10444754;28;20040;-82
2023/12/14 08:57:24;;;;;;;0.68;0.68;;;;;;;24.40;69.00;101658.53;10435784;28;20059;-82
2023/12/14 09:02:27;;;;;;;0.20;0.15;;;;;;;25.25;67.57;101654.09;10450867;28;20048;-83
2023/12/14 09:07:29;;;;;;;0.20;0.20;;;;;;;24.58;68.40;101677.47;10434692;28;20045;-82
2023/12/14 09:12:31;;;;;;;1.55;0.32;;;;;;;21.61;71.92;101685.91;10456859;28;20052;-82
2023/12/14 09:17:33;;;;;;;1.02;0.65;;;;;;;22.33;70.29;101694.00;10463060;28;20053;-82
2023/12/14 09:22:38;;;;;;;0.25;0.25;;;;;;;22.87;70.09;101689.91;10438640;28;20057;-82
2023/12/14 09:27:40;;;;;;;0.45;0.43;;;;;;;22.30;70.14;101705.41;10451148;28;20053;-82
2023/12/14 09:32:43;;;;;;;1.88;0.63;;;;;;;23.89;67.63;101698.91;10456907;28;20472;-82
2023/12/14 09:37:45;;;;;;;0.25;0.22;;;;;;;25.01;65.98;101701.19;10417033;28;20048;-82
2023/12/14 09:42:47;;;;;;;0.00;0.00;;;;;;;24.83;65.30;101707.72;10437988;28;20051;-82
2023/12/14 09:47:49;;;;;;;1.35;0.70;;;;;;;24.45;65.54;101737.47;10431227;28;20056;-83
2023/12/14 09:52:51;;;;;;;0.38;0.38;;;;;;;24.81;64.89;101742.94;10442517;28;20041;-83
2023/12/14 09:57:53;;;;;;;0.70;0.30;;;;;;;24.24;65.85;101747.47;10431668;28;20053;-83
2023/12/14 10:02:55;;;;;;;0.70;0.57;;;;;;;23.12;65.63;101758.78;10470890;28;20472;-82
2023/12/14 10:07:57;;;;;;;1.60;0.57;;;;;;;25.64;62.40;101762.22;10444758;28;20076;-83
2023/12/14 10:12:58;;;;;;;0.25;0.25;;;;;;;24.87;63.65;101775.28;10446672;28;20049;-83
2023/12/14 10:18:00;;;;;;;0.10;0.10;;;;;;;25.28;62.61;101780.56;10419442;28;20047;-82
2023/12/14 10:23:04;;;;;;;1.20;0.77;;;;;;;25.80;62.28;101782.97;10451626;28;20064;-83
2023/12/14 10:28:05;;;;;;;0.20;0.20;;;;;;;25.56;62.17;101795.84;10425106;28;20099;-83
2023/12/14 10:33:07;;;;;;;0.10;0.10;;;;;;;24.25;62.20;101801.88;10445301;28;20073;-83
2023/12/14 10:38:11;;;;;;;1.02;0.90;;;;;;;25.23;62.61;101808.81;10440247;28;20544;-82
2023/12/14 10:43:13;;;;;;;1.20;0.88;;;;;;;25.09;63.46;101813.53;10438801;28;20554;-82
2023/12/14 10:48:20;;;;;;;0.15;0.15;;;;;;;24.73;62.82;101813.34;10425161;28;20410;-83
2023/12/14 10:53:22;;;;;;;0.00;0.00;;;;;;;26.39;60.14;101819.38;10449403;28;20041;-83
2023/12/14 10:58:24;;;;;;;8.98;0.50;;;;;;;25.10;61.79;101824.03;10446558;28;20055;-83
2023/12/14 11:03:26;;;;;;;0.05;0.05;;;;;;;24.79;62.93;101824.66;10444938;28;20042;-83
2023/12/14 11:08:27;;;;;;;0.20;0.17;;;;;;;26.16;61.50;101830.53;10445832;28;20049;-83
2023/12/14 11:13:31;;;;;;;0.13;0.08;;;;;;;25.65;62.48;101826.41;10425822;28;20098;-83
2023/12/14 11:18:33;;;;;;;1.75;0.63;;;;;;;26.86;60.95;101832.22;10438005;28;20045;-83
2023/12/14 11:23:40;;;;;;;0.43;0.43;;;;;;;26.45;60.98;101844.78;10439728;28;20496;-83
2023/12/14 11:28:42;;;;;;;0.57;0.57;;;;;;;28.04;60.19;101844.59;10412152;28;20046;-83
2023/12/14 11:33:45;;;;;;;1.40;0.75;;;;;;;28.00;59.07;101858.88;10426736;28;20124;-82
2023/12/14 11:38:48;;;;;;;0.00;0.00;;;;;;;30.29;55.20;101845.16;10427702;28;20057;-82
2023/12/14 11:43:55;;;;;;;0.00;0.00;;;;;;;28.91;56.39;101860.25;10436569;28;20115;-82
2023/12/14 11:48:58;;;;;;;1.05;0.80;;;;;;;29.02;55.51;101862.53;10436918;28;20038;-83
2023/12/14 11:54:02;;;;;;;0.30;0.20;;;;;;;29.47;56.26;101874.13;10442749;28;20099;-83
2023/12/14 11:59:05;;;;;;;0.10;0.10;;;;;;;28.12;57.10;101879.69;10466656;28;20075;-83
2023/12/14 12:04:11;;;;;;;1.10;0.52;;;;;;;27.54;57.66;101883.22;10437621;28;20041;-83
2023/12/14 12:09:13;;;;;;;0.45;0.38;;;;;;;26.77;57.96;101882.69;10420176;28;20102;-84
2023/12/14 12:14:15;;;;;;;0.32;0.32;;;;;;;27.20;58.19;101889.47;10459942;28;20047;-83
2023/12/14 12:19:16;;;;;;;0.40;0.40;;;;;;;27.84;58.03;101895.56;10436901;28;20055;-83
2023/12/14 12:24:18;;;;;;;0.50;0.50;;;;;;;28.24;57.41;101886.34;10430092;28;20087;-82
2023/12/14 12:29:28;;;;;;;0.52;0.52;;;;;;;29.70;54.64;101902.47;10448125;28;20159;-83
2023/12/14 12:34:30;;;;;;;0.75;0.35;;;;;;;26.62;58.77;101902.47;10456595;28;20049;-83
2023/12/14 12:39:32;;;;;;;0.40;0.40;;;;;;;24.82;60.38;101914.19;10456344;28;20079;-82
2023/12/14 12:44:34;;;;;;;0.10;0.10;;;;;;;28.29;59.42;101899.47;10445241;28;20631;-83
2023/12/14 12:49:36;;;;;;;0.77;0.50;;;;;;;23.13;63.38;101921.72;10440363;28;20053;-82
2023/12/14 12:54:38;;;;;;;0.03;0.00;;;;;;;27.65;59.04;101919.09;10465457;28;20071;-83
2023/12/14 12:59:41;;;;;;;0.47;0.45;;;;;;;26.12;60.59;101921.28;10439436;28;20049;-84
2023/12/14 13:04:43;;;;;;;0.98;0.22;;;;;;;26.95;60.42;101915.75;10436241;28;20139;-85
2023/12/14 13:09:45;;;;;;;0.28;0.22;;;;;;;29.17;55.10;101914.13;10427345;28;20052;-84
2023/12/14 13:14:47;;;;;;;0.22;0.22;;;;;;;30.69;54.23;101912.63;10457602;28;20049;-83
2023/12/14 13:19:49;;;;;;;0.60;0.38;;;;;;;30.36;52.82;101939.66;10460476;28;20040;-83
2023/12/14 13:24:51;;;;;;;0.52;0.52;;;;;;;31.01;53.44;101931.59;10443320;28;20446;-83
2023/12/14 13:29:53;;;;;;;0.00;0.00;;;;;;;30.35;52.54;101956.53;10444069;28;20502;-83
2023/12/14 13:34:55;;;;;;;0.00;0.00;;;;;;;29.83;54.03;101961.25;10428952;28;20483;-83
2023/12/14 13:39:56;;;;;;;0.80;0.55;;;;;;;28.68;54.66;101975.91;10429953;28;20044;-84
2023/12/14 13:44:58;;;;;;;0.05;0.03;;;;;;;30.50;54.17;101975.44;10439924;28;20049;-83
2023/12/14 13:50:00;;;;;;;0.80;0.52;;;;;;;29.05;54.09;101982.66;10436060;28;20060;-83
2023/12/14 13:55:02;;;;;;;0.47;0.45;;;;;;;30.52;52.87;101984.25;10442831;28;20044;-83
2023/12/14 14:00:04;;;;;;;0.57;0.35;;;;;;;29.70;53.93;101998.91;10434525;28;20049;-84
2023/12/14 14:05:06;;;;;;;0.00;0.00;;;;;;;30.79;52.71;102000.88;10435562;28;20045;-84
2023/12/14 14:10:08;;;;;;;0.35;0.10;;;;;;;32.30;49.40;102013.69;10420192;28;20045;-83
2023/12/14 14:15:10;;;;;;;0.55;0.55;;;;;;;32.28;50.62;102021.75;10437433;28;20045;-84
2023/12/14 14:20:12;;;;;;;0.00;0.00;;;;;;;32.47;49.49;102031.53;10437759;28;20082;-83
2023/12/14 14:25:14;;;;;;;0.20;0.13;;;;;;;32.07;49.42;102038.72;10449717;28;20107;-84
2023/12/14 14:30:16;;;;;;;0.20;0.15;;;;;;;32.05;49.40;102041.47;10438000;28;20053;-83
2023/12/14 14:35:19;;;;;;;1.15;0.35;;;;;;;31.68;50.11;102037.88;10428293;28;20412;-84
2023/12/14 14:40:22;;;;;;;0.90;0.32;;;;;;;33.24;48.64;102047.28;10443139;28;20054;-83
2023/12/14 14:45:23;;;;;;;0.20;0.13;;;;;;;31.24;50.59;102070.81;10431457;28;20489;-83
2023/12/14 14:50:26;;;;;;;0.05;0.05;;;;;;;30.23;51.82;102071.34;10434101;28;20051;-83
2023/12/14 14:55:29;;;;;;;0.22;0.22;;;;;;;29.72;51.38;102075.84;10436413;28;20037;-83
2023/12/14 15:00:32;;;;;;;0.95;0.52;;;;;;;28.90;53.93;102086.63;10442722;28;20396;-83
2023/12/14 15:05:34;;;;;;;0.95;0.70;;;;;;;29.66;52.78;102098.22;10481491;28;20037;-84
2023/12/14 15:10:36;;;;;;;0.00;0.00;;;;;;;28.25;55.18;102105.38;10463169;28;20037;-84
2023/12/14 15:15:38;;;;;;;0.65;0.55;;;;;;;26.85;55.86;102123.09;10452643;28;20359;-84
2023/12/14 15:20:40;;;;;;;1.75;0.63;;;;;;;28.39;55.22;102118.22;10448701;28;20049;-85
2023/12/14 15:25:42;;;;;;;1.38;0.80;;;;;;;28.60;55.40;102115.81;10436234;28;20416;-85
2023/12/14 15:30:44;;;;;;;0.45;0.32;;;;;;;26.83;57.39;102146.06;10451863;28;20057;-85
2023/12/14 15:35:46;;;;;;;0.63;0.52;;;;;;;25.93;58.21;102138.16;10434672;28;20067;-85
2023/12/14 15:40:48;;;;;;;0.38;0.30;;;;;;;26.36;57.73;102146.16;10433718;28;20044;-85
2023/12/14 15:45:51;;;;;;;0.52;0.52;;;;;;;28.42;55.14;102154.34;10434924;28;20049;-85
2023/12/14 15:50:52;;;;;;;0.10;0.10;;;;;;;28.44;54.86;102164.00;10441310;28;20048;-85
2023/12/14 15:55:54;;;;;;;0.30;0.30;;;;;;;26.60;56.43;102177.38;10443149;28;20443;-83
2023/12/14 16:00:56;;;;;;;0.52;0.52;;;;;;;25.80;58.31;102184.19;10447357;28;20132;-84
2023/12/14 16:05:58;;;;;;;0.30;0.30;;;;;;;29.16;53.71;102173.31;10448065;28;20048;-85
2023/12/14 16:11:01;;;;;;;0.08;0.08;;;;;;;25.92;56.30;102194.50;10438442;28;20056;-84
2023/12/14 16:16:03;;;;;;;0.38;0.22;;;;;;;25.77;58.42;102202.69;10418387;28;20046;-84
2023/12/14 16:21:05;;;;;;;0.20;0.20;;;;;;;25.49;58.50;102211.09;10434606;28;20053;-84
2023/12/14 16:26:11;;;;;;;0.68;0.50;;;;;;;26.84;57.72;102211.25;10407684;28;20099;-83
2023/12/14 16:31:13;;;;;;;0.08;0.08;;;;;;;28.81;54.78;102213.28;10429261;28;20042;-83
2023/12/14 16:36:14;;;;;;;0.30;0.30;;;;;;;27.99;54.53;102225.28;10440867;28;20049;-83
2023/12/14 16:41:20;;;;;;;0.00;0.00;;;;;;;24.08;60.79;102232.13;10461652;28;20052;-83
2023/12/14 16:46:22;;;;;;;1.05;0.50;;;;;;;25.65;58.65;102233.66;10434332;28;20049;-82
2023/12/14 16:51:24;;;;;;;4.47;0.85;;;;;;;29.08;53.98;102228.41;10449918;28;20037;-83
2023/12/14 16:56:31;;;;;;;0.70;0.40;;;;;;;24.95;59.19;102239.06;10435784;28;20053;-83
2023/12/14 17:01:33;;;;;;;0.30;0.28;;;;;;;26.43;57.05;102245.53;10436544;28;20045;-83
2023/12/14 17:06:35;;;;;;;0.13;0.13;;;;;;;25.39;60.28;102244.66;10441148;28;20052;-83
2023/12/14 17:11:37;;;;;;;0.65;0.20;;;;;;;25.30;56.57;102245.59;10440228;28;20492;-83
2023/12/14 17:16:39;;;;;;;0.00;0.00;;;;;;;21.59;62.95;102263.66;10486932;28;20072;-83
2023/12/14 17:21:41;;;;;;;1.25;0.75;;;;;;;26.31;56.71;102254.56;10454171;28;20289;-83
2023/12/14 17:26:43;;;;;;;0.43;0.35;;;;;;;28.45;52.96;102261.16;10438535;28;20124;-83
2023/12/14 17:31:44;;;;;;;0.40;0.40;;;;;;;26.01;56.99;102277.09;10439229;28;20068;-83
2023/12/14 17:36:46;;;;;;;0.10;0.10;;;;;;;24.91;59.29;102281.31;10438313;28;20127;-83
2023/12/14 17:41:48;;;;;;;1.35;0.47;;;;;;;27.73;54.79;102287.75;10461266;28;20041;-83
2023/12/14 17:46:50;;;;;;;0.20;0.15;;;;;;;27.17;56.93;102283.69;10450956;28;20133;-83
2023/12/14 17:51:52;;;;;;;3.50;0.20;;;;;;;27.15;56.08;102298.72;10438281;28;20048;-83
2023/12/14 17:56:53;;;;;;;0.47;0.20;;;;;;;23.82;59.74;102323.53;10437933;28;20083;-83
2023/12/14 18:01:57;;;;;;;1.10;0.88;;;;;;;25.41;58.52;102305.31;10441608;28;20033;-83
2023/12/14 18:06:58;;;;;;;1.98;0.90;;;;;;;25.38;59.07;102308.84;10451835;28;20621;-84
2023/12/14 18:12:04;;;;;;;0.70;0.32;;;;;;;23.07;65.43;102292.38;10449633;28;20107;-83
2023/12/14 18:17:06;;;;;;;1.42;1.20;;;;;;;21.92;66.45;102296.06;10448620;28;20484;-83
2023/12/14 18:22:08;;;;;;;3.25;1.85;;;;;;;23.37;65.17;102306.28;10455250;28;20045;-83
2023/12/14 18:27:10;;;;;;;1.90;0.77;;;;;;;25.21;63.45;102295.84;10447671;28;20525;-82
2023/12/14 18:32:12;;;;;;;0.80;0.43;;;;;;;24.00;64.27;102312.94;10441597;28;20575;-83
2023/12/14 18:37:14;;;;;;;3.85;1.52;;;;;;;25.76;61.78;102314.44;10435784;28;20053;-83
2023/12/14 18:42:15;;;;;;;0.90;0.73;;;;;;;23.91;64.62;102339.28;10445968;28;20041;-83
2023/12/14 18:47:17;;;;;;;0.65;0.40;;;;;;;23.05;63.82;102328.28;10444315;28;20041;-83
2023/12/14 18:52:20;;;;;;;0.65;0.57;;;;;;;25.02;64.15;102337.38;10449384;28;20037;-83
2023/12/14 18:57:22;;;;;;;0.43;0.43;;;;;;;25.13;61.80;102342.56;10439515;28;20051;-83
2023/12/14 19:02:27;;;;;;;2.35;1.20;;;;;;;25.62;61.41;102346.31;10427434;28;20099;-82
2023/12/14 19:07:29;;;;;;;0.35;0.30;;;;;;;26.28;62.73;102355.03;10439129;28;20559;-82
2023/12/14 19:12:30;;;;;;;2.05;0.60;;;;;;;25.78;62.46;102360.19;10436316;28;20045;-82
2023/12/14 19:17:32;;;;;;;4.38;0.95;;;;;;;23.35;65.63;102371.16;10422679;28;20144;-82
2023/12/14 19:22:38;;;;;;;0.82;0.82;;;;;;;25.87;62.53;102370.59;10427000;28;20103;-82
2023/12/14 19:27:40;;;;;;;0.90;0.77;;;;;;;24.79;65.67;102393.03;10427321;28;20549;-82
2023/12/14 19:32:43;;;;;;;1.20;1.02;;;;;;;25.34;64.53;102397.69;10419708;28;20049;-82
2023/12/14 19:37:48;;;;;;;1.65;0.90;;;;;;;25.09;62.91;102417.31;10426041;28;20056;-82
2023/12/14 19:42:50;;;;;;;0.47;0.45;;;;;;;24.13;65.42;102408.47;10465599;28;20064;-83
2023/12/14 19:47:52;;;;;;;1.45;0.55;;;;;;;25.21;64.36;102417.16;10418408;28;20077;-83
2023/12/14 19:52:53;;;;;;;1.50;0.82;;;;;;;25.91;63.14;102409.25;10458956;28;20045;-82
2023/12/14 19:57:55;;;;;;;1.20;0.90;;;;;;;22.78;67.31;102422.09;10398641;28;20504;-83
2023/12/14 20:02:57;;;;;;;6.63;1.60;;;;;;;25.13;65.34;102419.91;10423506;28;20073;-83
2023/12/14 20:07:58;;;;;;;0.35;0.35;;;;;;;25.90;64.47;102423.34;10440414;28;20045;-83
2023/12/14 20:13:01;;;;;;;1.98;0.82;;;;;;;25.19;64.70;102430.38;10435522;28;20037;-83
2023/12/14 20:18:04;;;;;;;0.73;0.63;;;;;;;25.33;64.47;102438.13;10458888;28;20060;-83
2023/12/14 20:23:06;;;;;;;9.13;0.57;;;;;;;24.95;64.94;102444.69;10444565;28;20136;-83
2023/12/14 20:28:08;;;;;;;1.20;0.77;;;;;;;25.39;65.04;102452.16;10460090;28;20067;-83
2023/12/14 20:33:09;;;;;;;1.73;1.15;;;;;;;24.61;66.77;102460.78;10447334;28;20049;-83
2023/12/14 20:38:11;;;;;;;1.30;0.88;;;;;;;24.60;67.26;102461.69;10444603;28;20135;-83
2023/12/14 20:43:13;;;;;;;1.90;1.30;;;;;;;25.49;66.63;102459.97;10432298;28;20060;-83
2023/12/14 20:48:15;;;;;;;2.00;0.90;;;;;;;25.75;66.54;102445.56;10465303;28;20135;-83
2023/12/14 20:53:17;;;;;;;1.52;0.63;;;;;;;23.85;68.21;102458.63;10429072;28;20052;-83
2023/12/14 20:58:19;;;;;;;1.02;0.65;;;;;;;23.23;68.26;102465.88;10430686;28;20049;-83
2023/12/14 21:03:20;;;;;;;1.00;0.60;;;;;;;25.41;66.03;102476.78;10433858;28;20128;-83
2023/12/14 21:08:22;;;;;;;4.85;2.28;;;;;;;24.39;66.89;102474.09;10430556;28;20063;-83
2023/12/14 21:13:25;;;;;;;2.03;1.17;;;;;;;25.42;65.10;102478.53;10452178;28;20102;-83
2023/12/14 21:18:26;;;;;;;1.10;0.70;;;;;;;25.09;66.28;102480.59;10457589;28;20037;-83
2023/12/14 21:23:29;;;;;;;1.55;1.02;;;;;;;23.60;65.47;102492.06;10442984;28;20041;-84
2023/12/14 21:28:31;;;;;;;0.75;0.60;;;;;;;25.32;65.71;102494.41;10449652;28;20049;-83
2023/12/14 21:33:33;;;;;;;1.23;1.13;;;;;;;24.32;65.49;102498.75;10456956;28;20041;-83
2023/12/14 21:38:36;;;;;;;1.55;0.57;;;;;;;25.52;64.96;102488.06;10451764;28;20116;-83
2023/12/14 21:43:38;;;;;;;3.05;1.25;;;;;;;21.86;70.57;102491.94;10443335;28;20076;-84
2023/12/14 21:48:40;;;;;;;3.50;1.20;;;;;;;23.62;68.63;102479.78;10446117;28;20049;-83
2023/12/14 21:53:46;;;;;;;4.50;2.05;;;;;;;22.81;67.55;102495.69;10452882;28;20080;-83
2023/12/14 21:58:48;;;;;;;0.10;0.10;;;;;;;23.90;68.71;102496.31;10445287;28;20053;-83
2023/12/14 22:03:50;;;;;;;2.15;0.90;;;;;;;24.12;69.81;102490.09;10457693;28;20156;-83
2023/12/14 22:08:52;;;;;;;1.65;1.20;;;;;;;23.72;67.58;102496.41;10436114;28;20492;-83
2023/12/14 22:13:53;;;;;;;1.50;0.95;;;;;;;24.92;66.85;102494.81;10452398;28;20103;-83
2023/12/14 22:18:55;;;;;;;2.20;1.33;;;;;;;23.20;69.52;102497.41;10456105;28;20076;-83
2023/12/14 22:23:58;;;;;;;2.63;0.77;;;;;;;24.70;68.14;102504.66;10448548;28;20044;-83
2023/12/14 22:28:59;;;;;;;2.50;1.52;;;;;;;25.30;65.08;102501.47;10433460;28;20072;-83
2023/12/14 22:34:01;;;;;;;0.60;0.60;;;;;;;23.75;68.84;102512.19;10433658;28;20036;-83
2023/12/14 22:39:04;;;;;;;3.05;1.38;;;;;;;23.10;69.69;102522.81;10450938;28;20098;-83
2023/12/14 22:44:06;;;;;;;1.92;0.80;;;;;;;23.60;68.56;102531.50;10449435;28;20063;-83
2023/12/14 22:49:08;;;;;;;0.93;0.60;;;;;;;24.99;67.96;102528.13;10432104;28;20057;-83
2023/12/14 22:54:11;;;;;;;0.38;0.38;;;;;;;23.29;71.18;102526.31;10449206;28;20447;-83
2023/12/14 22:59:13;;;;;;;5.00;0.95;;;;;;;25.40;67.57;102538.34;10449057;28;20131;-83
2023/12/14 23:04:15;;;;;;;1.42;0.90;;;;;;;24.41;67.41;102545.25;10434436;28;20044;-83
2023/12/14 23:09:17;;;;;;;3.20;0.80;;;;;;;24.39;67.77;102547.88;10448329;28;20542;-82
2023/12/14 23:14:20;;;;;;;1.52;1.05;;;;;;;25.56;65.18;102555.75;10433946;28;20746;-82
2023/12/14 23:19:22;;;;;;;0.73;0.73;;;;;;;24.44;69.14;102560.16;10445095;28;20103;-82
2023/12/14 23:24:24;;;;;;;1.98;1.40;;;;;;;23.40;68.93;102564.00;10445878;28;20065;-82
2023/12/14 23:29:26;;;;;;;2.95;0.90;;;;;;;24.04;68.52;102567.38;10466947;28;20056;-82
2023/12/14 23:34:28;;;;;;;1.48;1.35;;;;;;;24.21;69.10;102563.78;10452229;28;20040;-82
2023/12/14 23:39:30;;;;;;;2.47;1.17;;;;;;;22.42;71.98;102570.03;10419090;28;20048;-82
2023/12/14 23:44:32;;;;;;;1.38;1.17;;;;;;;25.25;69.62;102566.59;10451697;28;20480;-82
2023/12/14 23:49:34;;;;;;;2.45;1.08;;;;;;;23.02;71.07;102567.50;10436611;28;20056;-82
2023/12/14 23:54:36;;;;;;;0.82;0.70;;;;;;;24.29;72.12;102571.63;10455166;28;20144;-83
2023/12/14 23:59:38;;;;;;;1.15;1.05;;;;;;;24.56;70.96;102575.88;10434177;28;20553;-82
